sensor_id;sensor_type;location;lat;lon;timestamp;pressure;altitude;pressure_sealevel;temperature
68588;BMP180;55560;52.174;20.996;2023-02-26T13:14:23;100339.40;;;3.20
68588;BMP180;55560;52.174;20.996;2023-02-26T13:20:23;100330.20;;;3.30
68588;BMP180;55560;52.174;20.996;2023-02-26T13:22:59;100335.00;;;3.40
68588;BMP180;55560;52.174;20.996;2023-02-26T13:25:45;100334.80;;;3.40
68588;BMP180;55560;52.174;20.996;2023-02-26T13:28:43;100338.80;;;3.42
68588;BMP180;55560;52.174;20.996;2023-02-26T13:31:33;100344.00;;;3.50
68588;BMP180;55560;52.174;20.996;2023-02-26T13:34:14;100346.00;;;3.50
68588;BMP180;55560;52.174;20.996;2023-02-26T13:36:44;100358.00;;;3.40
68588;BMP180;55560;52.174;20.996;2023-02-26T13:39:41;100352.60;;;3.40
68588;BMP180;55560;52.174;20.996;2023-02-26T13:42:38;100358.40;;;3.40
68588;BMP180;55560;52.174;20.996;2023-02-26T13:45:42;100357.40;;;3.34
68588;BMP180;55560;52.174;20.996;2023-02-26T13:59:23;100370.40;;;3.50
68588;BMP180;55560;52.174;20.996;2023-02-26T14:04:58;100378.60;;;3.54
68588;BMP180;55560;52.174;20.996;2023-02-26T14:07:47;100375.20;;;3.60
68588;BMP180;55560;52.174;20.996;2023-02-26T14:10:32;100380.80;;;3.60
68588;BMP180;55560;52.174;20.996;2023-02-26T14:13:15;100374.80;;;3.64
68588;BMP180;55560;52.174;20.996;2023-02-26T14:16:27;100381.80;;;3.70
68588;BMP180;55560;52.174;20.996;2023-02-26T14:27:39;100399.80;;;3.70
68588;BMP180;55560;52.174;20.996;2023-02-26T14:35:47;100395.20;;;3.70
68588;BMP180;55560;52.174;20.996;2023-02-26T14:38:35;100401.80;;;3.80
68588;BMP180;55560;52.174;20.996;2023-02-26T14:41:28;100404.20;;;3.80
68588;BMP180;55560;52.174;20.996;2023-02-26T14:44:18;100408.60;;;3.76
68588;BMP180;55560;52.174;20.996;2023-02-26T14:46:50;100411.60;;;3.70
68588;BMP180;55560;52.174;20.996;2023-02-26T14:49:46;100418.00;;;3.70
68588;BMP180;55560;52.174;20.996;2023-02-26T14:52:51;100422.20;;;3.70
68588;BMP180;55560;52.174;20.996;2023-02-26T15:01:19;100435.00;;;3.60
68588;BMP180;55560;52.174;20.996;2023-02-26T15:18:55;100451.20;;;3.60
68588;BMP180;55560;52.174;20.996;2023-02-26T15:24:52;100458.40;;;3.50
68588;BMP180;55560;52.174;20.996;2023-02-26T15:27:20;100456.40;;;3.50
68588;BMP180;55560;52.174;20.996;2023-02-26T15:29:50;100458.40;;;3.50
68588;BMP180;55560;52.174;20.996;2023-02-26T15:32:30;100460.80;;;3.50
68588;BMP180;55560;52.174;20.996;2023-02-26T15:37:47;100466.00;;;3.40
68588;BMP180;55560;52.174;20.996;2023-02-26T15:40:16;100465.00;;;3.40
68588;BMP180;55560;52.174;20.996;2023-02-26T15:42:48;100473.40;;;3.40
68588;BMP180;55560;52.174;20.996;2023-02-26T15:48:05;100477.00;;;3.34
68588;BMP180;55560;52.174;20.996;2023-02-26T15:50:38;100482.60;;;3.30
68588;BMP180;55560;52.174;20.996;2023-02-26T15:53:12;100483.80;;;3.30
68588;BMP180;55560;52.174;20.996;2023-02-26T15:55:50;100490.80;;;3.30
68588;BMP180;55560;52.174;20.996;2023-02-26T15:58:36;100497.20;;;3.28
68588;BMP180;55560;52.174;20.996;2023-02-26T16:01:05;100506.20;;;3.20
68588;BMP180;55560;52.174;20.996;2023-02-26T16:03:37;100513.60;;;3.20
68588;BMP180;55560;52.174;20.996;2023-02-26T16:06:16;100517.20;;;3.20
68588;BMP180;55560;52.174;20.996;2023-02-26T16:08:44;100515.60;;;3.20
68588;BMP180;55560;52.174;20.996;2023-02-26T16:11:13;100515.80;;;3.20
68588;BMP180;55560;52.174;20.996;2023-02-26T16:13:43;100523.60;;;3.20
68588;BMP180;55560;52.174;20.996;2023-02-26T16:16:22;100526.00;;;3.20
68588;BMP180;55560;52.174;20.996;2023-02-26T16:18:54;100527.40;;;3.20
68588;BMP180;55560;52.174;20.996;2023-02-26T16:21:36;100528.20;;;3.10
68588;BMP180;55560;52.174;20.996;2023-02-26T16:24:11;100533.00;;;3.10
68588;BMP180;55560;52.174;20.996;2023-02-26T16:26:48;100533.60;;;3.10
68588;BMP180;55560;52.174;20.996;2023-02-26T16:29:22;100538.80;;;3.10
68588;BMP180;55560;52.174;20.996;2023-02-26T16:31:57;100542.60;;;3.10
68588;BMP180;55560;52.174;20.996;2023-02-26T16:40:16;100560.20;;;3.52
68588;BMP180;55560;52.174;20.996;2023-02-26T16:48:18;100570.20;;;3.92
68588;BMP180;55560;52.174;20.996;2023-02-26T16:51:06;100568.00;;;4.00
68588;BMP180;55560;52.174;20.996;2023-02-26T16:53:59;100572.80;;;4.06
68588;BMP180;55560;52.174;20.996;2023-02-26T16:56:35;100578.40;;;4.10
68588;BMP180;55560;52.174;20.996;2023-02-26T16:59:28;100576.20;;;4.10
68588;BMP180;55560;52.174;20.996;2023-02-26T17:02:10;100583.00;;;4.10
68588;BMP180;55560;52.174;20.996;2023-02-26T17:04:40;100596.20;;;4.10
68588;BMP180;55560;52.174;20.996;2023-02-26T17:07:20;100597.00;;;4.10
68588;BMP180;55560;52.174;20.996;2023-02-26T17:09:51;100597.00;;;4.00
68588;BMP180;55560;52.174;20.996;2023-02-26T17:12:42;100597.40;;;4.00
68588;BMP180;55560;52.174;20.996;2023-02-26T17:15:29;100603.60;;;4.00
68588;BMP180;55560;52.174;20.996;2023-02-26T17:17:58;100604.40;;;3.98
68588;BMP180;55560;52.174;20.996;2023-02-26T17:20:28;100609.00;;;3.94
68588;BMP180;55560;52.174;20.996;2023-02-26T17:22:58;100610.60;;;4.00
68588;BMP180;55560;52.174;20.996;2023-02-26T17:25:37;100618.60;;;3.96
68588;BMP180;55560;52.174;20.996;2023-02-26T17:28:07;100621.60;;;4.00
68588;BMP180;55560;52.174;20.996;2023-02-26T17:30:36;100625.80;;;3.98
68588;BMP180;55560;52.174;20.996;2023-02-26T17:33:05;100630.60;;;3.94
68588;BMP180;55560;52.174;20.996;2023-02-26T17:35:34;100636.80;;;3.90
68588;BMP180;55560;52.174;20.996;2023-02-26T17:38:02;100642.60;;;3.90
68588;BMP180;55560;52.174;20.996;2023-02-26T17:40:35;100640.40;;;3.90
68588;BMP180;55560;52.174;20.996;2023-02-26T17:43:04;100642.00;;;3.90
68588;BMP180;55560;52.174;20.996;2023-02-26T17:45:33;100652.40;;;3.90
68588;BMP180;55560;52.174;20.996;2023-02-26T17:48:02;100653.80;;;3.90
68588;BMP180;55560;52.174;20.996;2023-02-26T17:50:47;100659.80;;;3.90
68588;BMP180;55560;52.174;20.996;2023-02-26T17:53:17;100666.60;;;3.82
68588;BMP180;55560;52.174;20.996;2023-02-26T17:55:47;100669.80;;;3.80
68588;BMP180;55560;52.174;20.996;2023-02-26T17:58:31;100670.20;;;3.80
68588;BMP180;55560;52.174;20.996;2023-02-26T18:01:01;100673.40;;;3.80
68588;BMP180;55560;52.174;20.996;2023-02-26T18:03:31;100679.20;;;3.80
68588;BMP180;55560;52.174;20.996;2023-02-26T18:05:59;100680.40;;;3.80
68588;BMP180;55560;52.174;20.996;2023-02-26T18:08:30;100684.40;;;3.80
68588;BMP180;55560;52.174;20.996;2023-02-26T18:11:00;100682.80;;;3.80
68588;BMP180;55560;52.174;20.996;2023-02-26T18:13:29;100681.20;;;3.80
68588;BMP180;55560;52.174;20.996;2023-02-26T18:15:58;100690.60;;;3.80
68588;BMP180;55560;52.174;20.996;2023-02-26T18:18:29;100688.80;;;3.80
68588;BMP180;55560;52.174;20.996;2023-02-26T18:20:59;100691.00;;;3.80
68588;BMP180;55560;52.174;20.996;2023-02-26T18:23:27;100692.60;;;3.80
68588;BMP180;55560;52.174;20.996;2023-02-26T18:25:55;100692.80;;;3.80
68588;BMP180;55560;52.174;20.996;2023-02-26T18:28:25;100693.40;;;3.80
68588;BMP180;55560;52.174;20.996;2023-02-26T18:30:57;100697.20;;;3.80
68588;BMP180;55560;52.174;20.996;2023-02-26T18:33:25;100698.00;;;3.76
68588;BMP180;55560;52.174;20.996;2023-02-26T18:35:55;100698.20;;;3.76
68588;BMP180;55560;52.174;20.996;2023-02-26T18:38:26;100702.80;;;3.80
68588;BMP180;55560;52.174;20.996;2023-02-26T18:40:55;100703.00;;;3.70
68588;BMP180;55560;52.174;20.996;2023-02-26T18:43:23;100707.20;;;3.70
68588;BMP180;55560;52.174;20.996;2023-02-26T18:45:51;100710.80;;;3.70
68588;BMP180;55560;52.174;20.996;2023-02-26T18:48:20;100716.80;;;3.70
68588;BMP180;55560;52.174;20.996;2023-02-26T18:50:48;100720.00;;;3.70
68588;BMP180;55560;52.174;20.996;2023-02-26T18:53:16;100725.00;;;3.68
68588;BMP180;55560;52.174;20.996;2023-02-26T18:55:51;100735.00;;;3.64
68588;BMP180;55560;52.174;20.996;2023-02-26T18:58:21;100736.20;;;3.68
68588;BMP180;55560;52.174;20.996;2023-02-26T19:00:50;100737.80;;;3.70
68588;BMP180;55560;52.174;20.996;2023-02-26T19:03:18;100732.80;;;3.70
68588;BMP180;55560;52.174;20.996;2023-02-26T19:05:55;100736.60;;;3.70
68588;BMP180;55560;52.174;20.996;2023-02-26T19:08:24;100751.60;;;3.70
68588;BMP180;55560;52.174;20.996;2023-02-26T19:10:52;100754.60;;;3.70
68588;BMP180;55560;52.174;20.996;2023-02-26T19:13:20;100755.40;;;3.70
68588;BMP180;55560;52.174;20.996;2023-02-26T19:15:50;100760.80;;;3.70
68588;BMP180;55560;52.174;20.996;2023-02-26T19:18:18;100760.80;;;3.70
68588;BMP180;55560;52.174;20.996;2023-02-26T19:20:47;100767.60;;;3.70
68588;BMP180;55560;52.174;20.996;2023-02-26T19:23:15;100764.60;;;3.70
68588;BMP180;55560;52.174;20.996;2023-02-26T19:25:43;100763.80;;;3.70
68588;BMP180;55560;52.174;20.996;2023-02-26T19:28:11;100762.40;;;3.60
68588;BMP180;55560;52.174;20.996;2023-02-26T19:30:39;100766.20;;;3.60
68588;BMP180;55560;52.174;20.996;2023-02-26T19:33:08;100771.20;;;3.60
68588;BMP180;55560;52.174;20.996;2023-02-26T19:35:36;100771.00;;;3.60
68588;BMP180;55560;52.174;20.996;2023-02-26T19:38:04;100776.00;;;3.60
68588;BMP180;55560;52.174;20.996;2023-02-26T19:40:32;100775.00;;;3.60
68588;BMP180;55560;52.174;20.996;2023-02-26T19:43:00;100780.80;;;3.60
68588;BMP180;55560;52.174;20.996;2023-02-26T19:45:27;100783.60;;;3.60
68588;BMP180;55560;52.174;20.996;2023-02-26T19:47:55;100790.80;;;3.60
68588;BMP180;55560;52.174;20.996;2023-02-26T19:50:25;100795.00;;;3.60
68588;BMP180;55560;52.174;20.996;2023-02-26T19:52:53;100795.20;;;3.60
68588;BMP180;55560;52.174;20.996;2023-02-26T19:55:22;100796.20;;;3.60
68588;BMP180;55560;52.174;20.996;2023-02-26T19:57:50;100798.40;;;3.70
68588;BMP180;55560;52.174;20.996;2023-02-26T20:00:19;100797.00;;;3.70
68588;BMP180;55560;52.174;20.996;2023-02-26T20:02:47;100803.60;;;3.70
68588;BMP180;55560;52.174;20.996;2023-02-26T20:05:16;100807.40;;;3.70
68588;BMP180;55560;52.174;20.996;2023-02-26T20:07:45;100816.40;;;3.70
68588;BMP180;55560;52.174;20.996;2023-02-26T20:10:15;100821.00;;;3.66
68588;BMP180;55560;52.174;20.996;2023-02-26T20:12:44;100819.00;;;3.64
68588;BMP180;55560;52.174;20.996;2023-02-26T20:15:12;100823.00;;;3.64
68588;BMP180;55560;52.174;20.996;2023-02-26T20:17:43;100826.20;;;3.62
68588;BMP180;55560;52.174;20.996;2023-02-26T20:20:11;100829.60;;;3.60
68588;BMP180;55560;52.174;20.996;2023-02-26T20:22:41;100824.60;;;3.60
68588;BMP180;55560;52.174;20.996;2023-02-26T20:25:09;100826.20;;;3.60
68588;BMP180;55560;52.174;20.996;2023-02-26T20:27:37;100832.60;;;3.60
68588;BMP180;55560;52.174;20.996;2023-02-26T20:30:07;100835.60;;;3.60
68588;BMP180;55560;52.174;20.996;2023-02-26T20:32:35;100839.00;;;3.60
68588;BMP180;55560;52.174;20.996;2023-02-26T20:35:04;100839.40;;;3.60
68588;BMP180;55560;52.174;20.996;2023-02-26T20:37:32;100847.60;;;3.60
68588;BMP180;55560;52.174;20.996;2023-02-26T20:40:00;100849.60;;;3.60
68588;BMP180;55560;52.174;20.996;2023-02-26T20:42:28;100849.20;;;3.60
68588;BMP180;55560;52.174;20.996;2023-02-26T20:44:56;100848.60;;;3.60
68588;BMP180;55560;52.174;20.996;2023-02-26T20:47:24;100852.40;;;3.60
68588;BMP180;55560;52.174;20.996;2023-02-26T20:49:52;100856.20;;;3.60
68588;BMP180;55560;52.174;20.996;2023-02-26T20:52:20;100857.20;;;3.60
68588;BMP180;55560;52.174;20.996;2023-02-26T20:54:48;100859.00;;;3.64
68588;BMP180;55560;52.174;20.996;2023-02-26T20:57:16;100855.60;;;3.64
68588;BMP180;55560;52.174;20.996;2023-02-26T20:59:44;100856.00;;;3.66
68588;BMP180;55560;52.174;20.996;2023-02-26T21:02:13;100858.00;;;3.68
68588;BMP180;55560;52.174;20.996;2023-02-26T21:04:42;100860.80;;;3.62
68588;BMP180;55560;52.174;20.996;2023-02-26T21:07:10;100865.60;;;3.62
68588;BMP180;55560;52.174;20.996;2023-02-26T21:09:44;100869.00;;;3.60
68588;BMP180;55560;52.174;20.996;2023-02-26T21:12:15;100869.40;;;3.60
68588;BMP180;55560;52.174;20.996;2023-02-26T21:14:46;100870.40;;;3.60
68588;BMP180;55560;52.174;20.996;2023-02-26T21:17:19;100867.40;;;3.60
68588;BMP180;55560;52.174;20.996;2023-02-26T21:19:50;100873.20;;;3.56
68588;BMP180;55560;52.174;20.996;2023-02-26T21:22:18;100874.00;;;3.58
68588;BMP180;55560;52.174;20.996;2023-02-26T21:24:47;100875.80;;;3.58
68588;BMP180;55560;52.174;20.996;2023-02-26T21:27:15;100879.40;;;3.52
68588;BMP180;55560;52.174;20.996;2023-02-26T21:29:43;100882.20;;;3.56
68588;BMP180;55560;52.174;20.996;2023-02-26T21:32:11;100887.40;;;3.60
68588;BMP180;55560;52.174;20.996;2023-02-26T21:34:39;100887.20;;;3.56
68588;BMP180;55560;52.174;20.996;2023-02-26T21:37:10;100889.20;;;3.60
68588;BMP180;55560;52.174;20.996;2023-02-26T21:39:39;100894.80;;;3.60
68588;BMP180;55560;52.174;20.996;2023-02-26T21:42:10;100895.40;;;3.60
68588;BMP180;55560;52.174;20.996;2023-02-26T21:44:40;100899.80;;;3.60
68588;BMP180;55560;52.174;20.996;2023-02-26T21:47:08;100900.60;;;3.60
68588;BMP180;55560;52.174;20.996;2023-02-26T21:49:36;100904.60;;;3.60
68588;BMP180;55560;52.174;20.996;2023-02-26T21:52:06;100909.00;;;3.60
68588;BMP180;55560;52.174;20.996;2023-02-26T21:54:34;100905.60;;;3.60
68588;BMP180;55560;52.174;20.996;2023-02-26T21:57:02;100903.80;;;3.60
68588;BMP180;55560;52.174;20.996;2023-02-26T21:59:30;100912.00;;;3.60
68588;BMP180;55560;52.174;20.996;2023-02-26T22:01:58;100909.80;;;3.64
68588;BMP180;55560;52.174;20.996;2023-02-26T22:04:26;100914.40;;;3.60
68588;BMP180;55560;52.174;20.996;2023-02-26T22:06:54;100910.40;;;3.60
68588;BMP180;55560;52.174;20.996;2023-02-26T22:09:22;100920.60;;;3.60
68588;BMP180;55560;52.174;20.996;2023-02-26T22:11:50;100924.40;;;3.60
68588;BMP180;55560;52.174;20.996;2023-02-26T22:14:18;100925.80;;;3.60
68588;BMP180;55560;52.174;20.996;2023-02-26T22:16:47;100925.60;;;3.60
68588;BMP180;55560;52.174;20.996;2023-02-26T22:19:15;100929.80;;;3.60
68588;BMP180;55560;52.174;20.996;2023-02-26T22:21:43;100939.80;;;3.50
68588;BMP180;55560;52.174;20.996;2023-02-26T22:24:10;100938.60;;;3.50
68588;BMP180;55560;52.174;20.996;2023-02-26T22:26:39;100929.60;;;3.50
68588;BMP180;55560;52.174;20.996;2023-02-26T22:29:07;100933.80;;;3.50
68588;BMP180;55560;52.174;20.996;2023-02-26T22:31:35;100935.80;;;3.50
68588;BMP180;55560;52.174;20.996;2023-02-26T22:34:03;100944.80;;;3.50
68588;BMP180;55560;52.174;20.996;2023-02-26T22:36:31;100947.80;;;3.50
68588;BMP180;55560;52.174;20.996;2023-02-26T22:39:03;100945.00;;;3.50
68588;BMP180;55560;52.174;20.996;2023-02-26T22:41:33;100951.40;;;3.50
68588;BMP180;55560;52.174;20.996;2023-02-26T22:44:03;100957.60;;;3.50
68588;BMP180;55560;52.174;20.996;2023-02-26T22:46:32;100958.00;;;3.50
68588;BMP180;55560;52.174;20.996;2023-02-26T22:49:00;100953.20;;;3.50
68588;BMP180;55560;52.174;20.996;2023-02-26T22:51:29;100952.00;;;3.50
68588;BMP180;55560;52.174;20.996;2023-02-26T22:53:59;100952.80;;;3.50
68588;BMP180;55560;52.174;20.996;2023-02-26T22:56:27;100957.80;;;3.50
68588;BMP180;55560;52.174;20.996;2023-02-26T22:58:55;100960.00;;;3.50
68588;BMP180;55560;52.174;20.996;2023-02-26T23:01:23;100959.20;;;3.50
68588;BMP180;55560;52.174;20.996;2023-02-26T23:03:52;100962.80;;;3.50
68588;BMP180;55560;52.174;20.996;2023-02-26T23:06:20;100966.20;;;3.40
68588;BMP180;55560;52.174;20.996;2023-02-26T23:08:48;100966.20;;;3.40
68588;BMP180;55560;52.174;20.996;2023-02-26T23:11:16;100967.40;;;3.46
68588;BMP180;55560;52.174;20.996;2023-02-26T23:13:44;100967.80;;;3.40
68588;BMP180;55560;52.174;20.996;2023-02-26T23:16:12;100973.20;;;3.40
68588;BMP180;55560;52.174;20.996;2023-02-26T23:18:40;100980.40;;;3.46
68588;BMP180;55560;52.174;20.996;2023-02-26T23:21:12;100984.20;;;3.50
68588;BMP180;55560;52.174;20.996;2023-02-26T23:23:41;100986.40;;;3.50
68588;BMP180;55560;52.174;20.996;2023-02-26T23:26:09;100991.00;;;3.50
68588;BMP180;55560;52.174;20.996;2023-02-26T23:28:37;100987.80;;;3.50
68588;BMP180;55560;52.174;20.996;2023-02-26T23:31:05;100988.20;;;3.50
68588;BMP180;55560;52.174;20.996;2023-02-26T23:33:33;100984.60;;;3.50
68588;BMP180;55560;52.174;20.996;2023-02-26T23:36:01;100986.60;;;3.50
68588;BMP180;55560;52.174;20.996;2023-02-26T23:38:28;100982.80;;;3.50
68588;BMP180;55560;52.174;20.996;2023-02-26T23:40:56;100989.00;;;3.50
68588;BMP180;55560;52.174;20.996;2023-02-26T23:43:24;100987.80;;;3.50
68588;BMP180;55560;52.174;20.996;2023-02-26T23:45:52;100995.40;;;3.50
68588;BMP180;55560;52.174;20.996;2023-02-26T23:48:20;101005.80;;;3.52
68588;BMP180;55560;52.174;20.996;2023-02-26T23:50:47;101010.60;;;3.50
68588;BMP180;55560;52.174;20.996;2023-02-26T23:53:15;101005.80;;;3.50
68588;BMP180;55560;52.174;20.996;2023-02-26T23:55:43;101004.40;;;3.50
68588;BMP180;55560;52.174;20.996;2023-02-26T23:58:11;101004.40;;;3.50
